createdAt,value
2023-05-09T00:01:45.309Z,2.40
2023-05-09T00:03:48.719Z,2.38
2023-05-09T00:05:52.137Z,2.10
2023-05-09T00:07:55.298Z,2.10
2023-05-09T00:09:58.698Z,2.38
2023-05-09T00:12:02.589Z,2.20
2023-05-09T00:14:06.738Z,1.95
2023-05-09T00:16:10.593Z,2.20
2023-05-09T00:18:15.347Z,2.20
2023-05-09T00:20:18.693Z,2.03
2023-05-09T00:22:22.337Z,2.15
2023-05-09T00:24:25.523Z,2.50
2023-05-09T00:26:28.890Z,2.30
2023-05-09T00:28:32.380Z,2.67
2023-05-09T00:30:35.608Z,2.30
2023-05-09T00:32:40.308Z,2.42
2023-05-09T00:34:44.936Z,2.40
2023-05-09T00:36:48.359Z,2.05
2023-05-09T00:38:51.585Z,2.10
2023-05-09T00:40:54.751Z,2.33
2023-05-09T00:43:00.526Z,2.40
2023-05-09T00:45:03.966Z,2.00
2023-05-09T00:47:07.748Z,2.40
2023-05-09T00:49:12.390Z,2.28
2023-05-09T00:51:17.772Z,2.50
2023-05-09T00:53:21.081Z,2.50
2023-05-09T00:55:24.692Z,2.08
2023-05-09T00:57:27.838Z,2.33
2023-05-09T00:59:31.085Z,2.17
2023-05-09T01:01:34.290Z,2.15
2023-05-09T01:03:41.261Z,2.33
2023-05-09T01:05:53.682Z,2.35
2023-05-09T01:08:03.683Z,2.60
2023-05-09T01:10:15.292Z,2.08
2023-05-09T01:14:39.036Z,2.38
2023-05-09T01:18:56.454Z,2.42
2023-05-09T01:21:08.872Z,2.60
2023-05-09T01:23:36.254Z,2.50
2023-05-09T01:25:57.062Z,2.67
2023-05-09T01:28:15.620Z,2.90
2023-05-09T01:30:21.563Z,2.70
2023-05-09T01:32:27.977Z,2.58
2023-05-09T01:34:33.678Z,2.65
2023-05-09T01:36:39.300Z,2.33
2023-05-09T01:38:45.380Z,2.30
2023-05-09T01:40:52.971Z,2.50
2023-05-09T01:42:59.572Z,2.47
2023-05-09T01:45:05.891Z,2.47
2023-05-09T01:47:12.374Z,2.78
2023-05-09T01:49:16.939Z,2.75
2023-05-09T01:51:21.411Z,2.22
2023-05-09T01:53:26.889Z,2.50
2023-05-09T01:55:34.198Z,2.50
2023-05-09T01:57:39.567Z,2.55
2023-05-09T01:59:47.424Z,2.60
2023-05-09T02:01:51.216Z,2.70
2023-05-09T02:03:56.571Z,2.63
2023-05-09T02:06:00.409Z,2.90
2023-05-09T02:08:03.947Z,2.45
2023-05-09T02:10:11.070Z,2.42
2023-05-09T02:12:14.444Z,3.10
2023-05-09T02:14:17.630Z,2.90
2023-05-09T02:16:21.224Z,3.05
2023-05-09T02:18:24.655Z,2.60
2023-05-09T02:20:29.227Z,2.88
2023-05-09T02:22:32.774Z,2.80
2023-05-09T02:24:36.522Z,2.70
2023-05-09T02:26:40.489Z,3.10
2023-05-09T02:28:46.467Z,3.40
2023-05-09T02:30:51.593Z,3.30
2023-05-09T02:33:00.564Z,3.00
2023-05-09T02:35:06.136Z,2.80
2023-05-09T02:37:12.054Z,2.95
2023-05-09T02:39:16.152Z,3.00
2023-05-09T02:41:19.458Z,3.30
2023-05-09T02:43:24.078Z,3.30
2023-05-09T02:45:27.626Z,3.03
2023-05-09T02:47:31.376Z,3.17
2023-05-09T02:49:35.272Z,3.20
2023-05-09T02:51:40.035Z,3.28
2023-05-09T02:53:44.882Z,3.25
2023-05-09T02:55:48.657Z,2.85
2023-05-09T02:57:58.932Z,3.80
2023-05-09T03:00:09.842Z,3.40
2023-05-09T03:02:13.066Z,3.17
2023-05-09T03:04:16.597Z,3.40
2023-05-09T03:06:19.836Z,3.50
2023-05-09T03:08:23.077Z,3.20
2023-05-09T03:10:27.740Z,3.58
2023-05-09T03:12:31.237Z,3.08
2023-05-09T03:14:34.525Z,3.80
2023-05-09T03:16:39.154Z,3.33
2023-05-09T03:18:47.281Z,3.78
2023-05-09T03:20:50.671Z,3.40
2023-05-09T03:22:54.032Z,3.53
2023-05-09T03:24:57.612Z,3.50
2023-05-09T03:27:02.269Z,3.28
2023-05-09T03:29:05.815Z,3.47
2023-05-09T03:31:09.607Z,3.70
2023-05-09T03:33:12.852Z,3.35
2023-05-09T03:35:16.290Z,3.65
2023-05-09T03:37:20.221Z,3.80
2023-05-09T03:39:23.626Z,3.40
2023-05-09T03:41:31.116Z,3.78
2023-05-09T03:43:35.995Z,3.70
2023-05-09T03:45:39.577Z,3.70
2023-05-09T03:47:44.947Z,3.90
2023-05-09T03:49:48.859Z,3.65
2023-05-09T03:51:55.183Z,3.50
2023-05-09T03:53:58.371Z,3.63
2023-05-09T03:56:01.770Z,4.00
2023-05-09T03:58:08.129Z,3.67
2023-05-09T04:00:16.478Z,3.88
2023-05-09T04:02:28.245Z,3.90
2023-05-09T04:04:31.622Z,4.15
2023-05-09T04:06:35.623Z,3.78
2023-05-09T04:08:40.826Z,4.20
2023-05-09T04:10:44.632Z,3.80
2023-05-09T04:12:47.886Z,4.10
2023-05-09T04:14:53.107Z,3.45
2023-05-09T04:16:58.212Z,3.95
2023-05-09T04:19:01.539Z,3.90
2023-05-09T04:21:05.325Z,3.85
2023-05-09T04:23:08.740Z,3.95
2023-05-09T04:25:14.379Z,4.18
2023-05-09T04:27:18.094Z,3.65
2023-05-09T04:29:21.344Z,4.15
2023-05-09T04:31:29.355Z,4.50
2023-05-09T04:33:34.706Z,4.10
2023-05-09T04:35:41.348Z,3.95
2023-05-09T04:37:44.842Z,4.53
2023-05-09T04:39:48.106Z,4.30
2023-05-09T04:41:57.045Z,4.63
2023-05-09T04:44:00.892Z,3.90
2023-05-09T04:46:04.244Z,4.05
2023-05-09T04:48:08.974Z,4.43
2023-05-09T04:50:14.511Z,4.25
2023-05-09T04:52:17.829Z,4.30
2023-05-09T04:54:21.448Z,4.55
2023-05-09T04:56:28.300Z,4.60
2023-05-09T04:58:33.314Z,4.30
2023-05-09T05:00:36.953Z,4.13
2023-05-09T05:02:40.480Z,4.75
2023-05-09T05:04:43.988Z,4.13
2023-05-09T05:06:48.889Z,4.50
2023-05-09T05:08:52.268Z,4.40
2023-05-09T05:10:55.480Z,3.90
2023-05-09T05:12:59.224Z,4.13
2023-05-09T05:15:02.544Z,4.53
2023-05-09T05:17:06.564Z,4.57
2023-05-09T05:19:10.015Z,4.53
2023-05-09T05:21:16.446Z,4.43
2023-05-09T05:23:22.107Z,4.20
2023-05-09T05:25:28.829Z,4.65
2023-05-09T05:27:33.279Z,4.13
2023-05-09T05:29:36.550Z,4.45
2023-05-09T05:31:39.914Z,4.47
2023-05-09T05:33:43.262Z,4.57
2023-05-09T05:35:46.803Z,4.57
2023-05-09T05:37:50.442Z,4.13
2023-05-09T05:39:55.572Z,4.65
2023-05-09T05:42:00.187Z,4.32
2023-05-09T05:44:03.685Z,4.60
2023-05-09T05:46:07.172Z,5.03
2023-05-09T05:48:11.545Z,5.00
2023-05-09T05:50:14.976Z,4.70
2023-05-09T05:52:18.963Z,5.00
2023-05-09T05:54:22.249Z,5.03
2023-05-09T05:56:27.253Z,4.55
2023-05-09T05:58:31.603Z,4.93
2023-05-09T06:00:34.876Z,4.22
2023-05-09T06:02:44.570Z,5.22
2023-05-09T06:04:55.943Z,5.18
2023-05-09T06:06:59.978Z,4.78
2023-05-09T06:09:03.284Z,4.78
2023-05-09T06:11:07.183Z,4.63
2023-05-09T06:13:11.947Z,4.65
2023-05-09T06:15:19.128Z,4.80
2023-05-09T06:17:25.652Z,4.97
2023-05-09T06:19:28.881Z,5.72
2023-05-09T06:21:34.234Z,4.75
2023-05-09T06:23:40.496Z,5.15
2023-05-09T06:25:48.989Z,4.80
2023-05-09T06:27:52.264Z,4.75
2023-05-09T06:29:56.896Z,4.63
2023-05-09T06:32:00.202Z,4.55
2023-05-09T06:34:03.480Z,5.35
2023-05-09T06:36:07.346Z,4.90
2023-05-09T06:38:10.664Z,4.85
2023-05-09T06:40:14.026Z,5.00
2023-05-09T06:42:17.349Z,5.00
2023-05-09T06:44:20.988Z,4.97
2023-05-09T06:46:25.842Z,5.00
2023-05-09T06:48:29.129Z,5.15
2023-05-09T06:50:33.046Z,5.55
2023-05-09T06:52:36.407Z,4.28
2023-05-09T06:54:39.698Z,5.03
2023-05-09T06:56:42.912Z,4.60
2023-05-09T06:58:46.098Z,5.20
2023-05-09T07:00:49.572Z,4.75
2023-05-09T07:02:54.365Z,5.32
2023-05-09T07:04:57.711Z,4.72
2023-05-09T07:07:00.967Z,4.68
2023-05-09T07:09:05.357Z,4.75
2023-05-09T07:11:08.609Z,4.63
2023-05-09T07:13:12.223Z,4.55
2023-05-09T07:15:20.546Z,5.78
2023-05-09T07:17:30.099Z,4.45
2023-05-09T07:19:34.749Z,4.68
2023-05-09T07:21:37.941Z,4.80
2023-05-09T07:23:41.263Z,4.93
2023-05-09T07:25:45.224Z,4.40
2023-05-09T07:27:48.454Z,4.50
2023-05-09T07:29:52.704Z,4.30
2023-05-09T07:31:56.031Z,4.80
2023-05-09T07:33:59.220Z,4.57
2023-05-09T07:36:03.925Z,5.03
2023-05-09T07:38:07.615Z,4.40
2023-05-09T07:40:11.722Z,4.63
2023-05-09T07:42:15.285Z,4.80
2023-05-09T07:44:18.521Z,4.68
2023-05-09T07:46:21.846Z,4.60
2023-05-09T07:48:25.213Z,5.13
2023-05-09T07:50:28.478Z,4.57
2023-05-09T07:52:33.171Z,5.47
2023-05-09T07:54:36.455Z,4.72
2023-05-09T07:56:39.790Z,4.30
2023-05-09T07:58:42.996Z,4.57
2023-05-09T08:00:46.276Z,4.43
2023-05-09T08:02:49.695Z,4.53
2023-05-09T08:04:53.125Z,4.22
2023-05-09T08:06:56.288Z,4.13
2023-05-09T08:09:00.968Z,4.40
2023-05-09T08:11:06.188Z,4.03
2023-05-09T08:13:09.579Z,4.22
2023-05-09T08:15:13.240Z,4.15
2023-05-09T08:17:19.500Z,4.35
2023-05-09T08:19:24.412Z,4.60
2023-05-09T08:21:27.716Z,4.18
2023-05-09T08:23:31.226Z,4.03
2023-05-09T08:25:35.917Z,4.18
2023-05-09T08:27:39.317Z,3.80
2023-05-09T08:29:43.000Z,3.80
2023-05-09T08:31:46.306Z,4.32
2023-05-09T08:33:49.574Z,4.00
2023-05-09T08:35:53.226Z,3.88
2023-05-09T08:37:56.421Z,3.78
2023-05-09T08:39:59.621Z,3.85
2023-05-09T08:42:04.482Z,3.78
2023-05-09T08:44:08.060Z,3.88
2023-05-09T08:46:12.913Z,3.80
2023-05-09T08:48:17.268Z,3.83
2023-05-09T08:50:21.616Z,3.83
2023-05-09T08:52:25.136Z,3.58
2023-05-09T08:54:28.857Z,3.35
2023-05-09T08:56:32.485Z,3.70
2023-05-09T08:58:40.081Z,3.63
2023-05-09T09:00:43.467Z,3.83
2023-05-09T09:02:47.192Z,3.30
2023-05-09T09:04:50.405Z,4.22
2023-05-09T09:06:55.551Z,3.60
2023-05-09T09:09:00.554Z,4.00
2023-05-09T09:11:04.372Z,4.30
2023-05-09T09:13:08.703Z,3.60
2023-05-09T09:15:18.128Z,3.78
2023-05-09T09:17:28.018Z,3.88
2023-05-09T09:19:32.611Z,3.75
2023-05-09T09:21:35.910Z,3.65
2023-05-09T09:23:41.303Z,3.28
2023-05-09T09:25:47.023Z,3.53
2023-05-09T09:27:50.281Z,3.30
2023-05-09T09:29:53.471Z,4.57
2023-05-09T09:31:58.114Z,3.58
2023-05-09T09:34:02.695Z,3.95
2023-05-09T09:36:07.319Z,3.33
2023-05-09T09:38:10.550Z,3.20
2023-05-09T09:40:14.645Z,3.25
2023-05-09T09:42:18.249Z,3.08
2023-05-09T09:44:23.228Z,3.50
2023-05-09T09:46:26.543Z,2.90
2023-05-09T09:48:33.863Z,2.95
2023-05-09T09:50:37.287Z,3.22
2023-05-09T09:52:45.186Z,3.05
2023-05-09T09:54:48.775Z,2.97
2023-05-09T09:56:54.569Z,3.00
2023-05-09T09:59:10.650Z,2.97
2023-05-09T10:01:16.478Z,2.63
2023-05-09T10:03:19.828Z,2.90
2023-05-09T10:05:26.227Z,2.80
2023-05-09T10:07:35.353Z,3.03
2023-05-09T10:09:38.950Z,3.28
2023-05-09T10:11:42.341Z,2.80
2023-05-09T10:13:46.518Z,3.65
2023-05-09T10:15:54.018Z,3.08
2023-05-09T10:17:59.549Z,2.90
2023-05-09T10:20:05.957Z,2.85
2023-05-09T10:22:13.307Z,2.90
2023-05-09T10:24:18.213Z,2.80
2023-05-09T10:26:27.679Z,2.80
2023-05-09T10:28:34.649Z,2.70
2023-05-09T10:30:48.900Z,2.88
2023-05-09T10:32:55.255Z,2.80
2023-05-09T10:35:04.500Z,2.53
2023-05-09T10:37:11.197Z,2.60
2023-05-09T10:39:14.892Z,2.83
2023-05-09T10:41:18.816Z,2.53
2023-05-09T10:43:24.106Z,2.58
2023-05-09T10:45:27.896Z,2.60
2023-05-09T10:47:33.342Z,2.70
2023-05-09T10:49:37.397Z,2.60
2023-05-09T10:51:40.925Z,2.50
2023-05-09T10:53:46.601Z,2.78
2023-05-09T10:55:52.269Z,2.90
2023-05-09T10:57:55.700Z,2.72
2023-05-09T11:00:00.217Z,2.80
2023-05-09T11:02:04.596Z,2.60
2023-05-09T11:04:11.491Z,2.83
2023-05-09T11:06:45.347Z,2.53
2023-05-09T11:08:49.908Z,2.90
2023-05-09T11:10:53.830Z,2.70
2023-05-09T11:12:58.710Z,2.65
2023-05-09T11:15:07.821Z,2.50
2023-05-09T11:17:13.344Z,2.33
2023-05-09T11:19:35.470Z,2.42
2023-05-09T11:21:38.709Z,2.33
2023-05-09T11:23:42.033Z,2.90
2023-05-09T11:25:48.398Z,2.33
2023-05-09T11:27:52.172Z,2.55
2023-05-09T11:29:56.843Z,2.40
2023-05-09T11:32:09.206Z,2.58
2023-05-09T11:34:13.285Z,2.40
2023-05-09T11:36:18.741Z,2.40
2023-05-09T11:38:23.079Z,2.50
2023-05-09T11:40:26.911Z,2.40
2023-05-09T11:42:32.714Z,2.50
2023-05-09T11:44:36.368Z,2.35
2023-05-09T11:46:39.623Z,2.42
2023-05-09T11:48:43.065Z,2.55
2023-05-09T11:50:49.630Z,3.08
2023-05-09T11:52:52.893Z,2.65
2023-05-09T11:54:56.124Z,3.08
2023-05-09T11:57:00.912Z,2.70
2023-05-09T11:59:05.629Z,3.03
2023-05-09T12:01:10.028Z,2.45
2023-05-09T12:03:15.297Z,2.47
2023-05-09T12:05:20.330Z,2.58
2023-05-09T12:07:23.527Z,3.00
2023-05-09T12:09:27.580Z,2.78
2023-05-09T12:11:35.103Z,2.38
2023-05-09T12:13:46.786Z,2.35
2023-05-09T12:15:52.276Z,2.35
2023-05-09T12:18:13.189Z,2.40
2023-05-09T12:20:16.526Z,2.70
2023-05-09T12:22:21.309Z,2.30
2023-05-09T12:24:26.582Z,2.45
2023-05-09T12:26:30.037Z,2.60
2023-05-09T12:28:33.862Z,2.60
2023-05-09T12:30:37.426Z,2.55
2023-05-09T12:32:42.943Z,3.28
2023-05-09T12:34:48.428Z,5.88
2023-05-09T12:36:51.975Z,8.77
2023-05-09T12:38:55.618Z,12.00
2023-05-09T12:41:03.945Z,14.95
2023-05-09T12:43:08.652Z,14.80
2023-05-09T12:45:13.413Z,16.25
2023-05-09T12:47:16.828Z,16.60
2023-05-09T12:49:24.500Z,16.67
2023-05-09T12:51:27.792Z,15.30
2023-05-09T12:53:32.161Z,13.07
2023-05-09T12:55:40.636Z,11.10
2023-05-09T12:57:44.143Z,7.13
2023-05-09T12:59:47.468Z,7.75
2023-05-09T13:01:55.005Z,7.10
2023-05-09T13:04:03.654Z,7.13
2023-05-09T13:06:13.926Z,6.53
2023-05-09T13:08:17.116Z,5.88
2023-05-09T13:10:22.453Z,6.20
2023-05-09T13:12:26.430Z,4.68
2023-05-09T13:14:29.688Z,4.38
2023-05-09T13:16:33.084Z,3.58
2023-05-09T13:18:36.379Z,4.35
2023-05-09T13:20:39.818Z,4.05
2023-05-09T13:22:45.069Z,3.42
2023-05-09T13:24:48.294Z,3.50
2023-05-09T13:26:51.480Z,3.10
2023-05-09T13:28:54.834Z,3.42
2023-05-09T13:30:59.297Z,3.25
2023-05-09T13:33:16.557Z,3.13
2023-05-09T13:35:20.686Z,3.33
2023-05-09T13:37:23.881Z,2.80
2023-05-09T13:39:28.472Z,3.55
2023-05-09T13:41:33.492Z,3.13
2023-05-09T13:43:37.669Z,2.70
2023-05-09T13:45:41.009Z,2.90
2023-05-09T13:47:44.298Z,2.75
2023-05-09T13:49:47.520Z,2.80
2023-05-09T13:51:50.871Z,2.80
2023-05-09T13:53:54.046Z,2.67
2023-05-09T13:55:58.784Z,2.50
2023-05-09T13:58:01.990Z,2.38
2023-05-09T14:00:11.347Z,2.65
2023-05-09T14:02:18.838Z,2.67
2023-05-09T14:04:21.979Z,2.72
2023-05-09T14:06:25.250Z,2.50
2023-05-09T14:08:28.451Z,2.45
2023-05-09T14:10:31.741Z,2.72
2023-05-09T14:12:36.384Z,2.92
2023-05-09T14:14:39.691Z,3.20
2023-05-09T14:16:42.924Z,2.38
2023-05-09T14:18:46.135Z,2.83
2023-05-09T14:20:49.421Z,2.78
2023-05-09T14:22:55.090Z,2.65
2023-05-09T14:24:58.611Z,2.55
2023-05-09T14:27:02.062Z,2.67
2023-05-09T14:29:07.207Z,2.60
2023-05-09T14:31:10.598Z,3.28
2023-05-09T14:33:14.544Z,2.80
2023-05-09T14:35:19.297Z,2.80
2023-05-09T14:37:22.617Z,2.70
2023-05-09T14:39:26.492Z,2.60
2023-05-09T14:41:30.255Z,2.75
2023-05-09T14:43:33.649Z,2.65
2023-05-09T14:45:38.634Z,2.90
2023-05-09T14:47:42.369Z,2.60
2023-05-09T14:49:45.758Z,2.60
2023-05-09T14:51:49.044Z,2.60
2023-05-09T14:53:53.442Z,3.10
2023-05-09T14:55:57.466Z,2.50
2023-05-09T14:58:00.919Z,2.72
2023-05-09T15:00:16.580Z,2.33
2023-05-09T15:02:24.645Z,2.22
2023-05-09T15:04:30.647Z,2.53
2023-05-09T15:06:34.218Z,3.08
2023-05-09T15:08:37.437Z,2.33
2023-05-09T15:10:41.100Z,2.75
2023-05-09T15:12:45.160Z,2.38
2023-05-09T15:14:48.958Z,2.38
2023-05-09T15:16:54.081Z,2.60
2023-05-09T15:18:59.849Z,2.33
2023-05-09T15:21:03.161Z,5.28
2023-05-09T15:23:08.045Z,2.35
2023-05-09T15:25:12.011Z,4.32
2023-05-09T15:27:15.450Z,2.45
2023-05-09T15:29:19.235Z,3.60
2023-05-09T15:31:24.100Z,2.55
2023-05-09T15:33:28.631Z,2.50
2023-05-09T15:35:33.690Z,2.67
2023-05-09T15:37:37.825Z,2.28
2023-05-09T15:39:43.516Z,2.85
2023-05-09T15:41:47.090Z,2.72
2023-05-09T15:43:50.444Z,2.50
2023-05-09T15:45:53.723Z,2.70
2023-05-09T15:47:57.093Z,2.47
2023-05-09T15:50:00.517Z,2.10
2023-05-09T15:52:06.133Z,3.08
2023-05-09T15:54:09.954Z,2.63
2023-05-09T15:56:13.453Z,2.25
2023-05-09T15:58:16.682Z,2.47
2023-05-09T16:00:20.502Z,2.45
2023-05-09T16:02:24.097Z,2.88
2023-05-09T16:04:27.770Z,2.42
2023-05-09T16:06:33.046Z,2.97
2023-05-09T16:08:38.033Z,2.15
2023-05-09T16:10:41.632Z,3.10
2023-05-09T16:12:44.922Z,2.40
2023-05-09T16:14:48.213Z,2.33
2023-05-09T16:16:53.547Z,2.47
2023-05-09T16:18:57.166Z,2.50
2023-05-09T16:21:00.542Z,2.33
2023-05-09T16:23:04.448Z,2.28
2023-05-09T16:25:10.461Z,2.10
2023-05-09T16:27:14.432Z,2.40
2023-05-09T16:29:17.784Z,1.90
2023-05-09T16:31:21.648Z,2.60
2023-05-09T16:33:25.121Z,2.08
2023-05-09T16:35:28.436Z,2.40
2023-05-09T16:37:33.413Z,2.42
2023-05-09T16:39:38.042Z,2.45
2023-05-09T16:41:42.721Z,2.05
2023-05-09T16:43:45.987Z,2.40
2023-05-09T16:45:49.754Z,2.00
2023-05-09T16:47:54.163Z,2.00
2023-05-09T16:49:57.455Z,2.33
2023-05-09T16:52:00.714Z,2.28
2023-05-09T16:54:04.047Z,2.40
2023-05-09T16:56:07.983Z,2.10
2023-05-09T16:58:12.768Z,2.47
2023-05-09T17:00:17.017Z,2.17
2023-05-09T17:02:20.581Z,2.20
2023-05-09T17:04:24.116Z,1.90
2023-05-09T17:06:28.085Z,2.30
2023-05-09T17:08:31.542Z,1.90
2023-05-09T17:10:37.228Z,1.98
2023-05-09T17:12:42.119Z,2.53
2023-05-09T17:14:49.733Z,2.20
2023-05-09T17:16:53.608Z,1.95
2023-05-09T17:18:57.064Z,2.47
2023-05-09T17:21:00.452Z,2.25
2023-05-09T17:23:04.115Z,2.10
2023-05-09T17:25:08.187Z,2.03
2023-05-09T17:27:11.973Z,2.28
2023-05-09T17:29:15.340Z,2.30
2023-05-09T17:31:20.115Z,2.38
2023-05-09T17:33:23.421Z,2.08
2023-05-09T17:35:27.071Z,2.28
2023-05-09T17:37:30.443Z,2.25
2023-05-09T17:39:34.694Z,2.25
2023-05-09T17:41:38.702Z,2.47
2023-05-09T17:43:42.415Z,2.50
2023-05-09T17:45:47.128Z,2.50
2023-05-09T17:47:52.336Z,2.40
2023-05-09T17:49:55.706Z,2.28
2023-05-09T17:51:59.969Z,2.20
2023-05-09T17:54:04.091Z,2.30
2023-05-09T17:56:07.686Z,2.20
2023-05-09T17:58:11.150Z,1.83
2023-05-09T18:00:16.761Z,2.20
2023-05-09T18:02:26.536Z,2.10
2023-05-09T18:04:32.878Z,2.35
2023-05-09T18:06:36.986Z,2.00
2023-05-09T18:08:40.380Z,2.22
2023-05-09T18:10:43.809Z,1.90
2023-05-09T18:12:47.524Z,2.00
2023-05-09T18:14:52.301Z,2.20
2023-05-09T18:16:55.586Z,1.92
2023-05-09T18:18:59.332Z,2.08
2023-05-09T18:21:05.407Z,1.80
2023-05-09T18:23:08.969Z,2.30
2023-05-09T18:25:12.639Z,2.05
2023-05-09T18:27:15.898Z,1.80
2023-05-09T18:29:19.608Z,2.00
2023-05-09T18:31:23.060Z,2.10
2023-05-09T18:33:28.097Z,2.10
2023-05-09T18:35:31.707Z,2.17
2023-05-09T18:37:36.942Z,2.20
2023-05-09T18:39:40.290Z,2.22
2023-05-09T18:41:44.041Z,2.08
2023-05-09T18:43:47.346Z,2.30
2023-05-09T18:45:51.915Z,2.40
2023-05-09T18:47:55.344Z,2.50
2023-05-09T18:50:00.978Z,1.90
2023-05-09T18:52:06.044Z,2.22
2023-05-09T18:54:11.072Z,1.90
2023-05-09T18:56:14.626Z,1.85
2023-05-09T18:58:18.031Z,2.03
2023-05-09T19:00:21.523Z,2.13
2023-05-09T19:02:25.454Z,2.00
2023-05-09T19:04:29.180Z,2.20
2023-05-09T19:06:32.989Z,1.98
2023-05-09T19:08:36.338Z,2.17
2023-05-09T19:10:41.168Z,3.10
2023-05-09T19:12:44.669Z,2.20
2023-05-09T19:14:48.229Z,5.40
2023-05-09T19:16:51.476Z,2.20
2023-05-09T19:18:57.038Z,1.98
2023-05-09T19:21:01.355Z,1.83
2023-05-09T19:23:06.043Z,2.30
2023-05-09T19:25:10.480Z,2.35
2023-05-09T19:27:15.103Z,2.95
2023-05-09T19:29:18.381Z,1.73
2023-05-09T19:31:21.696Z,1.70
2023-05-09T19:33:25.087Z,2.10
2023-05-09T19:35:28.476Z,1.88
2023-05-09T19:37:31.747Z,2.20
2023-05-09T19:39:35.148Z,3.22
2023-05-09T19:41:38.472Z,2.42
2023-05-09T19:43:43.199Z,2.08
2023-05-09T19:45:46.495Z,2.05
2023-05-09T19:47:49.979Z,2.13
2023-05-09T19:49:53.609Z,2.35
2023-05-09T19:51:57.221Z,2.35
2023-05-09T19:54:00.483Z,2.53
2023-05-09T19:56:04.416Z,2.03
2023-05-09T19:58:07.604Z,2.05
2023-05-09T20:00:20.852Z,2.03
2023-05-09T20:02:24.184Z,2.30
2023-05-09T20:04:27.360Z,2.10
2023-05-09T20:06:30.764Z,2.38
2023-05-09T20:08:34.140Z,2.33
2023-05-09T20:10:37.569Z,2.20
2023-05-09T20:12:41.251Z,2.17
2023-05-09T20:14:44.997Z,2.10
2023-05-09T20:16:49.561Z,2.03
2023-05-09T20:18:55.074Z,2.00
2023-05-09T20:20:58.293Z,2.30
2023-05-09T20:23:02.002Z,1.95
2023-05-09T20:25:05.797Z,1.92
2023-05-09T20:27:08.997Z,2.20
2023-05-09T20:29:12.286Z,2.28
2023-05-09T20:31:15.561Z,2.33
2023-05-09T20:33:20.207Z,2.05
2023-05-09T20:35:23.432Z,1.92
2023-05-09T20:37:26.782Z,2.50
2023-05-09T20:39:29.985Z,2.30
2023-05-09T20:41:34.924Z,2.17
2023-05-09T20:43:38.430Z,2.25
2023-05-09T20:45:43.997Z,2.20
2023-05-09T20:47:47.260Z,2.10
2023-05-09T20:49:51.986Z,2.17
2023-05-09T20:51:56.127Z,2.10
2023-05-09T20:53:59.331Z,2.13
2023-05-09T20:56:03.012Z,2.20
2023-05-09T20:58:06.761Z,2.13
2023-05-09T21:00:10.725Z,1.95
2023-05-09T21:02:13.947Z,2.03
2023-05-09T21:04:17.128Z,2.00
2023-05-09T21:06:22.119Z,2.20
2023-05-09T21:08:26.642Z,2.13
2023-05-09T21:10:29.871Z,2.60
2023-05-09T21:12:33.049Z,2.35
2023-05-09T21:14:36.301Z,2.00
2023-05-09T21:16:39.671Z,2.50
2023-05-09T21:18:42.951Z,2.10
2023-05-09T21:20:46.283Z,2.20
2023-05-09T21:22:50.867Z,2.17
2023-05-09T21:24:54.463Z,2.00
2023-05-09T21:26:57.633Z,2.35
2023-05-09T21:29:00.798Z,2.20
2023-05-09T21:31:03.997Z,2.20
2023-05-09T21:33:07.248Z,2.28
2023-05-09T21:35:12.867Z,1.90
2023-05-09T21:37:16.286Z,2.20
2023-05-09T21:39:20.915Z,2.10
2023-05-09T21:41:24.127Z,2.08
2023-05-09T21:43:28.621Z,2.30
2023-05-09T21:45:31.849Z,1.90
2023-05-09T21:47:35.268Z,2.40
2023-05-09T21:49:38.732Z,2.00
2023-05-09T21:51:41.890Z,2.00
2023-05-09T21:53:45.158Z,2.30
2023-05-09T21:55:50.963Z,2.17
2023-05-09T21:57:54.208Z,2.47
2023-05-09T22:00:01.259Z,2.10
2023-05-09T22:02:05.300Z,2.00
2023-05-09T22:04:08.598Z,2.20
2023-05-09T22:06:12.123Z,2.30
2023-05-09T22:08:15.348Z,2.30
2023-05-09T22:10:19.029Z,2.55
2023-05-09T22:12:24.147Z,2.00
2023-05-09T22:14:27.362Z,2.15
2023-05-09T22:16:30.846Z,2.10
2023-05-09T22:18:34.063Z,2.45
2023-05-09T22:20:37.208Z,2.10
2023-05-09T22:22:40.470Z,2.40
2023-05-09T22:24:43.778Z,2.28
2023-05-09T22:26:47.035Z,2.30
2023-05-09T22:28:51.668Z,2.20
2023-05-09T22:30:54.871Z,2.30
2023-05-09T22:32:58.885Z,2.53
2023-05-09T22:35:02.333Z,2.22
2023-05-09T22:37:05.594Z,2.40
2023-05-09T22:39:08.908Z,2.25
2023-05-09T22:41:12.445Z,2.80
2023-05-09T22:43:15.631Z,2.28
2023-05-09T22:45:20.543Z,2.22
2023-05-09T22:47:23.883Z,2.30
2023-05-09T22:49:27.077Z,2.45
2023-05-09T22:51:30.247Z,2.28
2023-05-09T22:53:33.843Z,2.72
2023-05-09T22:55:37.072Z,2.45
2023-05-09T22:57:41.629Z,2.65
2023-05-09T22:59:44.941Z,2.50
2023-05-09T23:01:49.496Z,2.80
2023-05-09T23:03:52.655Z,2.40
2023-05-09T23:05:55.841Z,2.63
2023-05-09T23:07:59.052Z,2.50
2023-05-09T23:10:02.247Z,2.70
2023-05-09T23:12:06.179Z,2.92
2023-05-09T23:14:09.690Z,2.60
2023-05-09T23:16:12.904Z,2.58
2023-05-09T23:18:17.493Z,2.97
2023-05-09T23:20:20.843Z,2.75
2023-05-09T23:22:24.228Z,2.88
2023-05-09T23:24:27.417Z,3.00
2023-05-09T23:26:39.436Z,3.42
2023-05-09T23:28:42.671Z,2.80
2023-05-09T23:30:45.855Z,2.95
2023-05-09T23:32:49.087Z,2.63
2023-05-09T23:34:53.661Z,2.80
2023-05-09T23:36:56.834Z,2.92
2023-05-09T23:39:00.033Z,2.50
2023-05-09T23:41:03.210Z,2.80
2023-05-09T23:43:06.626Z,2.90
2023-05-09T23:45:11.204Z,2.88
2023-05-09T23:47:14.573Z,2.90
2023-05-09T23:49:18.308Z,3.58
2023-05-09T23:51:22.966Z,2.95
2023-05-09T23:53:26.204Z,3.00
2023-05-09T23:55:29.434Z,3.03
2023-05-09T23:57:32.664Z,2.85
2023-05-09T23:59:35.980Z,3.00
